createdAt,value
2022-10-13T00:01:41.536Z,86.89
2022-10-13T00:04:11.091Z,86.68
2022-10-13T00:06:41.251Z,86.64
2022-10-13T00:09:10.764Z,86.49
2022-10-13T00:11:42.933Z,86.33
2022-10-13T00:14:12.699Z,86.35
2022-10-13T00:16:42.508Z,86.27
2022-10-13T00:19:15.053Z,86.15
2022-10-13T00:21:44.850Z,86.05
2022-10-13T00:24:14.694Z,85.99
2022-10-13T00:26:46.899Z,86.08
2022-10-13T00:29:21.852Z,86.01
2022-10-13T00:31:52.037Z,86.15
2022-10-13T00:34:21.637Z,86.21
2022-10-13T00:36:51.212Z,86.17
2022-10-13T00:39:20.997Z,86.33
2022-10-13T00:41:54.490Z,86.33
2022-10-13T00:44:54.146Z,86.30
2022-10-13T00:47:24.018Z,86.37
2022-10-13T00:49:54.054Z,86.25
2022-10-13T00:52:24.393Z,86.36
2022-10-13T00:54:54.045Z,86.52
2022-10-13T00:57:26.418Z,86.42
2022-10-13T00:59:56.028Z,86.57
2022-10-13T01:02:26.682Z,86.53
2022-10-13T01:04:57.340Z,86.70
2022-10-13T01:07:27.022Z,86.74
2022-10-13T01:09:56.714Z,86.77
2022-10-13T01:12:40.105Z,86.96
2022-10-13T01:15:13.297Z,86.89
2022-10-13T01:17:50.771Z,86.71
2022-10-13T01:20:47.897Z,86.83
2022-10-13T01:23:40.861Z,86.68
2022-10-13T01:26:26.627Z,86.61
2022-10-13T01:29:15.582Z,86.59
2022-10-13T01:31:50.550Z,86.89
2022-10-13T01:34:24.891Z,86.91
2022-10-13T01:36:59.463Z,86.80
2022-10-13T01:39:38.214Z,86.84
2022-10-13T01:42:13.268Z,87.09
2022-10-13T01:44:46.244Z,86.98
2022-10-13T01:47:18.668Z,86.99
2022-10-13T01:49:49.064Z,87.14
2022-10-13T01:52:21.154Z,87.12
2022-10-13T01:54:53.281Z,87.01
2022-10-13T01:57:34.533Z,87.09
2022-10-13T02:00:07.602Z,86.86
2022-10-13T02:02:56.908Z,86.96
2022-10-13T02:05:34.939Z,86.90
2022-10-13T02:08:07.524Z,86.87
2022-10-13T02:10:43.061Z,86.87
2022-10-13T02:13:14.502Z,86.61
2022-10-13T02:15:47.773Z,86.39
2022-10-13T02:18:22.346Z,86.17
2022-10-13T02:20:52.144Z,86.12
2022-10-13T02:23:22.094Z,86.04
2022-10-13T02:25:52.717Z,86.35
2022-10-13T02:28:22.919Z,85.93
2022-10-13T02:30:52.722Z,86.02
2022-10-13T02:33:24.971Z,86.08
2022-10-13T02:35:54.596Z,85.97
2022-10-13T02:38:24.141Z,85.99
2022-10-13T02:40:54.898Z,85.73
2022-10-13T02:43:25.142Z,85.72
2022-10-13T02:45:54.710Z,85.69
2022-10-13T02:48:26.832Z,85.55
2022-10-13T02:50:56.485Z,85.42
2022-10-13T02:53:26.132Z,85.32
2022-10-13T02:55:56.486Z,85.27
2022-10-13T02:58:28.171Z,85.29
2022-10-13T03:00:57.934Z,85.40
2022-10-13T03:03:30.724Z,85.48
2022-10-13T03:06:00.924Z,85.52
2022-10-13T03:08:31.851Z,85.56
2022-10-13T03:11:01.591Z,85.40
2022-10-13T03:13:31.204Z,85.45
2022-10-13T03:16:09.739Z,85.55
2022-10-13T03:18:41.956Z,85.45
2022-10-13T03:21:13.140Z,85.45
2022-10-13T03:23:42.974Z,85.53
2022-10-13T03:26:12.727Z,85.31
2022-10-13T03:28:42.370Z,85.25
2022-10-13T03:31:13.796Z,85.27
2022-10-13T03:33:46.417Z,85.12
2022-10-13T03:36:16.129Z,85.23
2022-10-13T03:38:48.518Z,85.13
2022-10-13T03:41:19.719Z,85.18
2022-10-13T03:43:52.603Z,85.20
2022-10-13T03:46:22.293Z,85.20
2022-10-13T03:48:54.520Z,85.23
2022-10-13T03:51:24.996Z,85.07
2022-10-13T03:53:55.290Z,85.03
2022-10-13T03:56:26.673Z,85.02
2022-10-13T03:58:56.746Z,85.01
2022-10-13T04:01:28.239Z,85.04
2022-10-13T04:04:02.273Z,84.99
2022-10-13T04:06:32.520Z,85.00
2022-10-13T04:09:02.224Z,85.18
2022-10-13T04:11:32.091Z,85.14
2022-10-13T04:14:02.498Z,85.04
2022-10-13T04:16:33.449Z,85.09
2022-10-13T04:19:08.453Z,85.23
2022-10-13T04:21:38.297Z,85.11
2022-10-13T04:24:09.136Z,85.07
2022-10-13T04:26:39.161Z,84.93
2022-10-13T04:29:13.165Z,84.91
2022-10-13T04:31:44.511Z,84.88
2022-10-13T04:34:16.660Z,84.93
2022-10-13T04:36:46.353Z,84.93
2022-10-13T04:39:15.932Z,85.05
2022-10-13T04:41:45.670Z,85.00
2022-10-13T04:44:15.422Z,85.10
2022-10-13T04:46:45.020Z,84.97
2022-10-13T04:49:17.450Z,84.96
2022-10-13T04:51:47.065Z,84.96
2022-10-13T04:54:16.591Z,84.89
2022-10-13T04:56:47.344Z,84.69
2022-10-13T04:59:16.931Z,84.73
2022-10-13T05:01:46.531Z,84.45
2022-10-13T05:04:18.702Z,84.32
2022-10-13T05:07:15.946Z,84.28
2022-10-13T05:09:38.125Z,84.31
2022-10-13T05:12:13.350Z,84.35
2022-10-13T05:14:42.995Z,84.28
2022-10-13T05:17:12.788Z,84.22
2022-10-13T05:19:44.968Z,84.09
2022-10-13T05:22:14.665Z,84.36
2022-10-13T05:24:44.698Z,84.18
2022-10-13T05:27:15.600Z,83.97
2022-10-13T05:29:45.439Z,84.02
2022-10-13T05:32:15.019Z,83.84
2022-10-13T05:34:47.239Z,83.78
2022-10-13T05:37:17.147Z,83.67
2022-10-13T05:39:48.862Z,83.65
2022-10-13T05:42:19.039Z,83.76
2022-10-13T05:44:49.106Z,83.67
2022-10-13T05:47:18.912Z,83.74
2022-10-13T05:49:51.053Z,83.60
2022-10-13T05:52:21.082Z,83.42
2022-10-13T05:54:56.640Z,83.24
2022-10-13T05:57:28.950Z,83.29
2022-10-13T06:00:01.457Z,83.11
2022-10-13T06:02:35.022Z,83.12
2022-10-13T06:05:09.015Z,83.14
2022-10-13T06:07:38.581Z,83.24
2022-10-13T06:10:09.457Z,83.17
2022-10-13T06:12:39.169Z,83.15
2022-10-13T06:15:10.033Z,83.16
2022-10-13T06:17:40.704Z,83.21
2022-10-13T06:20:13.959Z,83.24
2022-10-13T06:22:43.515Z,83.08
2022-10-13T06:25:14.330Z,83.13
2022-10-13T06:27:43.917Z,83.25
2022-10-13T06:30:14.234Z,83.15
2022-10-13T06:32:43.863Z,83.21
2022-10-13T06:35:16.150Z,83.18
2022-10-13T06:37:48.619Z,83.07
2022-10-13T06:40:18.559Z,83.02
2022-10-13T06:42:52.564Z,83.08
2022-10-13T06:45:27.814Z,83.00
2022-10-13T06:47:57.774Z,82.98
2022-10-13T06:50:32.220Z,82.95
2022-10-13T06:53:01.846Z,82.87
2022-10-13T06:55:32.931Z,83.03
2022-10-13T06:58:02.911Z,82.82
2022-10-13T07:00:32.839Z,82.74
2022-10-13T07:03:02.472Z,82.86
2022-10-13T07:05:34.899Z,82.63
2022-10-13T07:08:04.562Z,82.59
2022-10-13T07:10:34.135Z,82.56
2022-10-13T07:13:03.749Z,82.30
2022-10-13T07:15:34.061Z,82.20
2022-10-13T07:18:03.644Z,82.15
2022-10-13T07:20:36.215Z,81.93
2022-10-13T07:23:05.924Z,81.78
2022-10-13T07:25:35.551Z,81.39
2022-10-13T07:28:06.029Z,81.11
2022-10-13T07:30:37.051Z,80.72
2022-10-13T07:33:06.819Z,80.01
2022-10-13T07:35:41.303Z,79.27
2022-10-13T07:38:11.817Z,78.84
2022-10-13T07:40:44.063Z,78.27
2022-10-13T07:43:13.680Z,78.04
2022-10-13T07:45:43.280Z,77.85
2022-10-13T07:48:12.890Z,77.63
2022-10-13T07:50:45.101Z,77.38
2022-10-13T07:53:15.121Z,77.43
2022-10-13T07:55:44.769Z,77.30
2022-10-13T07:58:15.069Z,77.31
2022-10-13T08:00:44.921Z,77.30
2022-10-13T08:03:14.432Z,77.05
2022-10-13T08:05:46.597Z,76.81
2022-10-13T08:08:16.147Z,76.57
2022-10-13T08:10:45.785Z,76.48
2022-10-13T08:13:15.681Z,76.22
2022-10-13T08:15:46.692Z,75.64
2022-10-13T08:18:17.393Z,74.83
2022-10-13T08:20:49.626Z,73.49
2022-10-13T08:23:20.727Z,72.31
2022-10-13T08:25:53.132Z,70.60
2022-10-13T08:28:25.919Z,68.06
2022-10-13T08:30:57.787Z,67.04
2022-10-13T08:33:27.974Z,65.91
2022-10-13T08:36:00.283Z,64.62
2022-10-13T08:38:29.845Z,64.51
2022-10-13T08:40:59.417Z,65.00
2022-10-13T08:43:29.206Z,65.18
2022-10-13T08:46:02.559Z,65.97
2022-10-13T08:48:36.274Z,66.17
2022-10-13T08:51:09.632Z,66.36
2022-10-13T08:53:41.966Z,66.72
2022-10-13T08:56:16.729Z,66.45
2022-10-13T08:58:50.606Z,66.87
2022-10-13T09:01:23.744Z,66.99
2022-10-13T09:03:55.927Z,67.13
2022-10-13T09:06:31.792Z,67.23
2022-10-13T09:09:02.938Z,67.30
2022-10-13T09:11:34.617Z,67.79
2022-10-13T09:14:06.349Z,67.45
2022-10-13T09:16:38.452Z,67.04
2022-10-13T09:19:17.126Z,67.19
2022-10-13T09:21:49.342Z,66.67
2022-10-13T09:24:20.433Z,66.72
2022-10-13T09:26:52.672Z,66.72
2022-10-13T09:29:28.911Z,66.01
2022-10-13T09:32:12.719Z,65.00
2022-10-13T09:34:42.290Z,63.51
2022-10-13T09:37:23.434Z,61.15
2022-10-13T09:40:04.502Z,59.70
2022-10-13T09:42:35.012Z,59.07
2022-10-13T09:45:16.572Z,58.20
2022-10-13T09:47:52.470Z,58.34
2022-10-13T09:50:23.829Z,58.40
2022-10-13T09:52:56.423Z,58.64
2022-10-13T09:55:34.823Z,58.51
2022-10-13T09:58:08.657Z,58.95
2022-10-13T10:00:39.646Z,58.77
2022-10-13T10:03:13.483Z,59.40
2022-10-13T10:05:49.773Z,58.67
2022-10-13T10:08:33.386Z,57.58
2022-10-13T10:11:13.377Z,57.13
2022-10-13T10:13:43.252Z,57.12
2022-10-13T10:16:15.892Z,56.72
2022-10-13T10:18:51.914Z,55.83
2022-10-13T10:21:31.711Z,56.04
2022-10-13T10:24:09.351Z,56.21
2022-10-13T10:26:49.103Z,56.47
2022-10-13T10:29:25.238Z,56.72
2022-10-13T10:32:19.418Z,56.56
2022-10-13T10:34:53.960Z,56.33
2022-10-13T10:37:38.340Z,56.79
2022-10-13T10:40:17.163Z,56.97
2022-10-13T10:43:02.006Z,57.18
2022-10-13T10:45:34.535Z,57.09
2022-10-13T10:48:07.312Z,57.53
2022-10-13T10:50:37.519Z,57.17
2022-10-13T10:53:09.917Z,57.50
2022-10-13T10:55:48.659Z,57.95
2022-10-13T10:58:27.275Z,57.94
2022-10-13T11:01:01.987Z,58.64
2022-10-13T11:03:42.460Z,58.60
2022-10-13T11:06:27.643Z,59.29
2022-10-13T11:08:58.244Z,59.06
2022-10-13T11:11:51.140Z,59.21
2022-10-13T11:14:31.971Z,59.74
2022-10-13T11:17:20.753Z,59.74
2022-10-13T11:19:51.596Z,59.36
2022-10-13T11:22:23.956Z,59.52
2022-10-13T11:25:05.506Z,59.54
2022-10-13T11:27:49.655Z,59.01
2022-10-13T11:30:34.129Z,58.88
2022-10-13T11:33:09.338Z,58.66
2022-10-13T11:35:39.084Z,58.67
2022-10-13T11:38:26.895Z,58.73
2022-10-13T11:41:11.623Z,58.58
2022-10-13T11:43:51.769Z,58.91
2022-10-13T11:46:37.348Z,59.87
2022-10-13T11:49:42.701Z,59.88
2022-10-13T11:52:23.302Z,60.05
2022-10-13T11:54:58.296Z,60.50
2022-10-13T11:57:28.241Z,60.87
2022-10-13T12:00:00.397Z,60.92
2022-10-13T12:02:32.272Z,61.58
2022-10-13T12:05:03.843Z,61.33
2022-10-13T12:07:38.516Z,62.08
2022-10-13T12:10:10.962Z,62.39
2022-10-13T12:12:41.166Z,63.17
2022-10-13T12:15:37.960Z,63.65
2022-10-13T12:18:23.555Z,64.01
2022-10-13T12:20:57.193Z,64.63
2022-10-13T12:23:27.609Z,65.04
2022-10-13T12:26:00.061Z,65.25
2022-10-13T12:28:31.993Z,65.74
2022-10-13T12:31:10.132Z,66.63
2022-10-13T12:33:43.309Z,66.91
2022-10-13T12:36:16.341Z,67.47
2022-10-13T12:38:50.164Z,67.77
2022-10-13T12:41:20.472Z,67.99
2022-10-13T12:43:52.561Z,67.91
2022-10-13T12:46:43.528Z,68.71
2022-10-13T12:49:18.171Z,68.69
2022-10-13T12:51:50.862Z,68.95
2022-10-13T13:44:42.134Z,71.15
2022-10-13T13:47:20.391Z,71.20
2022-10-13T13:49:51.319Z,71.02
2022-10-13T13:52:21.883Z,71.11
2022-10-13T13:54:52.113Z,71.18
2022-10-13T13:57:22.615Z,71.50
2022-10-13T13:59:54.891Z,71.91
2022-10-13T14:02:24.575Z,71.75
2022-10-13T14:04:54.212Z,71.99
2022-10-13T14:07:24.710Z,72.44
2022-10-13T14:09:59.255Z,72.32
2022-10-13T14:12:32.020Z,72.56
2022-10-13T14:15:04.065Z,72.51
2022-10-13T14:17:34.449Z,72.44
2022-10-13T14:20:03.900Z,73.18
2022-10-13T14:22:40.515Z,73.20
2022-10-13T14:25:10.821Z,73.36
2022-10-13T14:27:40.309Z,73.72
2022-10-13T14:30:15.265Z,74.07
2022-10-13T14:32:44.957Z,74.37
2022-10-13T14:35:14.421Z,74.30
2022-10-13T14:37:43.854Z,75.20
2022-10-13T14:40:14.222Z,75.47
2022-10-13T14:42:43.800Z,76.05
2022-10-13T14:45:20.558Z,76.31
2022-10-13T14:47:49.979Z,76.36
2022-10-13T14:50:19.562Z,76.30
2022-10-13T14:52:54.657Z,76.41
2022-10-13T14:55:25.677Z,76.84
2022-10-13T14:57:55.121Z,77.11
2022-10-13T15:00:27.116Z,77.12
2022-10-13T15:02:56.595Z,77.40
2022-10-13T15:05:28.222Z,77.55
2022-10-13T15:07:57.685Z,77.61
2022-10-13T15:10:27.167Z,77.91
2022-10-13T15:12:57.069Z,78.00
2022-10-13T15:15:29.218Z,78.24
2022-10-13T15:17:58.783Z,78.23
2022-10-13T15:20:29.206Z,78.67
2022-10-13T15:22:58.753Z,78.41
2022-10-13T15:25:28.293Z,78.79
2022-10-13T15:27:57.879Z,79.11
2022-10-13T15:30:29.995Z,79.00
2022-10-13T15:32:59.569Z,79.48
2022-10-13T15:35:32.594Z,79.52
2022-10-13T15:38:02.142Z,79.67
2022-10-13T15:40:33.614Z,79.75
2022-10-13T15:43:03.376Z,80.07
2022-10-13T15:45:35.832Z,80.36
2022-10-13T15:48:05.769Z,80.40
2022-10-13T15:50:35.469Z,80.56
2022-10-13T15:53:05.071Z,81.00
2022-10-13T15:55:35.612Z,81.56
2022-10-13T15:58:07.799Z,81.89
2022-10-13T16:00:42.602Z,82.06
2022-10-13T16:03:16.501Z,82.23
2022-10-13T16:05:46.457Z,82.45
2022-10-13T16:08:16.892Z,82.56
2022-10-13T16:10:46.483Z,82.68
2022-10-13T16:13:17.611Z,82.90
2022-10-13T16:15:59.581Z,82.85
2022-10-13T16:18:31.840Z,82.72
2022-10-13T16:21:01.422Z,82.74
2022-10-13T16:23:30.975Z,83.00
2022-10-13T16:26:00.521Z,82.83
2022-10-13T16:28:31.198Z,82.94
2022-10-13T16:31:05.704Z,83.00
2022-10-13T16:33:37.489Z,83.10
2022-10-13T16:36:07.994Z,83.18
2022-10-13T16:38:37.780Z,83.51
2022-10-13T16:41:08.175Z,83.46
2022-10-13T16:43:37.884Z,83.36
2022-10-13T16:46:10.171Z,83.27
2022-10-13T16:48:39.702Z,83.15
2022-10-13T16:51:11.021Z,83.14
2022-10-13T16:53:41.231Z,83.27
2022-10-13T16:56:11.192Z,83.63
2022-10-13T16:58:44.917Z,83.63
2022-10-13T17:01:17.200Z,83.80
2022-10-13T17:03:47.915Z,83.88
2022-10-13T17:06:18.007Z,84.23
2022-10-13T17:08:47.520Z,84.58
2022-10-13T17:11:19.736Z,84.78
2022-10-13T17:13:49.555Z,84.96
2022-10-13T17:16:22.610Z,85.05
2022-10-13T17:18:52.159Z,84.83
2022-10-13T17:21:22.266Z,85.08
2022-10-13T17:23:52.088Z,85.25
2022-10-13T17:26:21.838Z,85.50
2022-10-13T17:28:51.491Z,85.47
2022-10-13T17:31:25.615Z,85.88
2022-10-13T17:33:55.372Z,85.55
2022-10-13T17:36:26.822Z,85.45
2022-10-13T17:38:58.280Z,85.34
2022-10-13T17:41:27.941Z,85.45
2022-10-13T17:43:57.452Z,85.57
2022-10-13T17:46:39.222Z,85.65
2022-10-13T17:49:09.893Z,85.85
2022-10-13T17:51:39.481Z,85.99
2022-10-13T17:54:15.325Z,86.19
2022-10-13T17:56:46.321Z,86.30
2022-10-13T17:59:16.144Z,86.44
2022-10-13T18:01:48.658Z,86.79
2022-10-13T18:04:22.304Z,86.95
2022-10-13T18:06:51.835Z,86.99
2022-10-13T18:09:23.542Z,86.84
2022-10-13T18:11:53.703Z,87.05
2022-10-13T18:14:24.525Z,87.59
2022-10-13T18:16:56.775Z,87.74
2022-10-13T18:19:26.366Z,87.76
2022-10-13T18:21:55.999Z,88.18
2022-10-13T18:24:25.524Z,88.16
2022-10-13T18:26:56.091Z,88.21
2022-10-13T18:29:26.915Z,88.06
2022-10-13T18:31:59.603Z,88.39
2022-10-13T18:34:29.166Z,88.29
2022-10-13T18:36:58.683Z,88.51
2022-10-13T18:39:30.080Z,88.79
2022-10-13T18:42:00.392Z,88.86
2022-10-13T18:44:36.802Z,88.93
2022-10-13T18:47:09.206Z,88.81
2022-10-13T18:49:38.741Z,88.88
2022-10-13T18:52:08.469Z,88.82
2022-10-13T18:54:41.691Z,88.77
2022-10-13T18:57:11.256Z,88.81
2022-10-13T18:59:40.945Z,88.94
2022-10-13T19:02:16.128Z,89.02
2022-10-13T19:04:45.673Z,89.09
2022-10-13T19:07:15.241Z,88.86
2022-10-13T19:09:44.796Z,89.12
2022-10-13T19:12:14.328Z,89.15
2022-10-13T19:14:43.849Z,89.42
2022-10-13T19:17:15.970Z,89.43
2022-10-13T19:19:46.235Z,89.25
2022-10-13T19:22:15.795Z,89.25
2022-10-13T19:24:45.348Z,89.35
2022-10-13T19:27:14.933Z,89.33
2022-10-13T19:29:44.476Z,89.44
2022-10-13T19:32:16.657Z,89.27
2022-10-13T19:34:46.239Z,89.20
2022-10-13T19:37:16.815Z,89.41
2022-10-13T19:39:46.375Z,89.38
2022-10-13T19:42:15.963Z,89.43
2022-10-13T19:44:45.523Z,89.34
2022-10-13T19:47:17.650Z,89.34
2022-10-13T19:49:47.315Z,89.53
2022-10-13T19:52:16.901Z,89.26
2022-10-13T19:54:46.452Z,89.27
2022-10-13T19:57:15.980Z,89.19
2022-10-13T19:59:47.828Z,89.08
2022-10-13T20:02:20.138Z,88.71
2022-10-13T20:04:49.781Z,88.84
2022-10-13T20:07:19.441Z,88.72
2022-10-13T20:09:49.361Z,88.65
2022-10-13T20:12:19.345Z,88.74
2022-10-13T20:14:49.191Z,88.64
2022-10-13T20:17:21.623Z,88.59
2022-10-13T20:19:55.513Z,88.40
2022-10-13T20:22:25.375Z,88.27
2022-10-13T20:24:54.900Z,88.28
2022-10-13T20:27:24.461Z,88.16
2022-10-13T20:29:54.026Z,88.08
2022-10-13T20:32:26.364Z,87.71
2022-10-13T20:34:55.910Z,87.86
2022-10-13T20:37:25.535Z,87.87
2022-10-13T20:39:55.350Z,87.69
2022-10-13T20:42:24.884Z,87.46
2022-10-13T20:44:54.474Z,87.58
2022-10-13T20:47:26.642Z,87.49
2022-10-13T20:49:56.158Z,87.27
2022-10-13T20:52:26.536Z,87.19
2022-10-13T20:54:56.071Z,87.42
2022-10-13T20:57:26.594Z,86.99
2022-10-13T20:59:57.161Z,87.12
2022-10-13T21:02:29.414Z,87.11
2022-10-13T21:04:58.949Z,86.99
2022-10-13T21:07:28.557Z,86.81
2022-10-13T21:09:58.107Z,86.93
2022-10-13T21:12:28.756Z,86.83
2022-10-13T21:14:58.301Z,86.73
2022-10-13T21:17:31.927Z,86.73
2022-10-13T21:20:01.761Z,86.62
2022-10-13T21:22:33.091Z,86.59
2022-10-13T21:25:02.626Z,86.56
2022-10-13T21:27:32.249Z,86.93
2022-10-13T21:30:01.780Z,86.84
2022-10-13T21:32:35.125Z,86.57
2022-10-13T21:35:04.673Z,86.75
2022-10-13T21:37:36.250Z,86.70
2022-10-13T21:40:05.832Z,86.70
2022-10-13T21:42:36.989Z,86.83
2022-10-13T21:45:07.219Z,86.85
2022-10-13T21:47:39.988Z,87.05
2022-10-13T21:50:10.665Z,86.91
2022-10-13T21:52:40.245Z,86.88
2022-10-13T21:55:10.833Z,86.79
2022-10-13T21:57:42.311Z,86.83
2022-10-13T22:00:13.161Z,86.96
2022-10-13T22:02:45.303Z,86.78
2022-10-13T22:05:15.144Z,86.85
2022-10-13T22:07:47.537Z,87.12
2022-10-13T22:10:17.139Z,87.14
2022-10-13T22:12:46.694Z,87.12
2022-10-13T22:15:16.307Z,87.28
2022-10-13T22:17:48.437Z,87.12
2022-10-13T22:20:18.513Z,87.12
2022-10-13T22:22:48.059Z,87.19
2022-10-13T22:25:18.225Z,87.32
2022-10-13T22:27:47.797Z,87.17
2022-10-13T22:30:17.333Z,87.16
2022-10-13T22:32:49.475Z,87.38
2022-10-13T22:35:19.039Z,87.32
2022-10-13T22:37:48.591Z,87.37
2022-10-13T22:40:18.344Z,87.42
2022-10-13T22:42:49.406Z,87.66
2022-10-13T22:45:18.969Z,87.61
2022-10-13T22:47:53.961Z,87.63
2022-10-13T22:50:23.467Z,87.79
2022-10-13T22:52:53.453Z,87.75
2022-10-13T22:55:22.977Z,88.02
2022-10-13T22:57:52.524Z,88.27
2022-10-13T23:00:22.214Z,88.10
2022-10-13T23:02:54.318Z,88.31
2022-10-13T23:05:23.886Z,88.38
2022-10-13T23:07:53.448Z,88.58
2022-10-13T23:10:24.688Z,88.57
2022-10-13T23:12:54.215Z,88.60
2022-10-13T23:15:23.762Z,88.53
2022-10-13T23:17:55.930Z,88.86
2022-10-13T23:20:25.487Z,89.04
2022-10-13T23:22:55.013Z,88.99
2022-10-13T23:25:24.552Z,89.01
2022-10-13T23:27:54.110Z,89.28
2022-10-13T23:30:23.694Z,89.26
2022-10-13T23:32:55.840Z,89.67
2022-10-13T23:35:25.364Z,89.76
2022-10-13T23:37:55.386Z,89.98
2022-10-13T23:40:24.927Z,90.20
2022-10-13T23:42:54.517Z,90.49
2022-10-13T23:45:24.072Z,90.32
2022-10-13T23:47:56.229Z,90.48
2022-10-13T23:50:26.266Z,90.62
2022-10-13T23:52:55.825Z,90.63
2022-10-13T23:55:25.348Z,90.61
2022-10-13T23:57:54.897Z,90.79
